sensor_id;sensor_type;location;lat;lon;timestamp;temperature;humidity
49489;SHT31;35382;51.484;11.476;2023-04-03T00:01:09;0.21;84.44
49489;SHT31;35382;51.484;11.476;2023-04-03T00:02:50;0.19;84.41
49489;SHT31;35382;51.484;11.476;2023-04-03T00:04:31;0.23;84.79
49489;SHT31;35382;51.484;11.476;2023-04-03T00:06:12;0.26;84.79
49489;SHT31;35382;51.484;11.476;2023-04-03T00:07:53;0.34;84.55
49489;SHT31;35382;51.484;11.476;2023-04-03T00:09:34;0.39;84.23
49489;SHT31;35382;51.484;11.476;2023-04-03T00:11:17;0.33;84.31
49489;SHT31;35382;51.484;11.476;2023-04-03T00:12:58;0.39;84.14
49489;SHT31;35382;51.484;11.476;2023-04-03T00:14:39;0.44;84.40
49489;SHT31;35382;51.484;11.476;2023-04-03T00:16:20;0.47;84.62
49489;SHT31;35382;51.484;11.476;2023-04-03T00:18:02;0.46;83.59
49489;SHT31;35382;51.484;11.476;2023-04-03T00:19:43;0.43;84.15
49489;SHT31;35382;51.484;11.476;2023-04-03T00:21:24;0.44;84.53
49489;SHT31;35382;51.484;11.476;2023-04-03T00:23:08;0.50;83.64
49489;SHT31;35382;51.484;11.476;2023-04-03T00:24:48;0.54;83.54
49489;SHT31;35382;51.484;11.476;2023-04-03T00:26:29;0.54;83.54
49489;SHT31;35382;51.484;11.476;2023-04-03T00:28:11;0.53;83.42
49489;SHT31;35382;51.484;11.476;2023-04-03T00:29:52;0.53;83.43
49489;SHT31;35382;51.484;11.476;2023-04-03T00:31:33;0.63;83.45
49489;SHT31;35382;51.484;11.476;2023-04-03T00:33:14;0.58;83.36
49489;SHT31;35382;51.484;11.476;2023-04-03T00:34:55;0.57;83.19
49489;SHT31;35382;51.484;11.476;2023-04-03T00:36:36;0.64;83.41
49489;SHT31;35382;51.484;11.476;2023-04-03T00:38:17;0.63;83.00
49489;SHT31;35382;51.484;11.476;2023-04-03T00:39:58;0.57;83.41
49489;SHT31;35382;51.484;11.476;2023-04-03T00:41:39;0.53;83.66
49489;SHT31;35382;51.484;11.476;2023-04-03T00:43:23;0.57;83.56
49489;SHT31;35382;51.484;11.476;2023-04-03T00:46:45;0.47;84.13
49489;SHT31;35382;51.484;11.476;2023-04-03T00:48:37;0.56;83.38
49489;SHT31;35382;51.484;11.476;2023-04-03T00:50:19;0.68;83.09
49489;SHT31;35382;51.484;11.476;2023-04-03T00:52:01;0.60;82.86
49489;SHT31;35382;51.484;11.476;2023-04-03T00:53:58;0.53;83.19
49489;SHT31;35382;51.484;11.476;2023-04-03T00:55:41;0.56;83.07
49489;SHT31;35382;51.484;11.476;2023-04-03T00:57:22;0.50;82.68
49489;SHT31;35382;51.484;11.476;2023-04-03T01:00:50;0.43;83.54
49489;SHT31;35382;51.484;11.476;2023-04-03T01:02:36;0.37;83.24
49489;SHT31;35382;51.484;11.476;2023-04-03T01:06:12;0.24;83.60
49489;SHT31;35382;51.484;11.476;2023-04-03T01:07:57;0.16;84.28
49489;SHT31;35382;51.484;11.476;2023-04-03T01:09:39;0.13;84.39
49489;SHT31;35382;51.484;11.476;2023-04-03T01:11:21;0.14;84.66
49489;SHT31;35382;51.484;11.476;2023-04-03T01:13:18;0.06;84.45
49489;SHT31;35382;51.484;11.476;2023-04-03T01:15:02;0.02;84.74
49489;SHT31;35382;51.484;11.476;2023-04-03T01:16:54;-0.03;84.67
49489;SHT31;35382;51.484;11.476;2023-04-03T01:18:37;-0.07;85.01
49489;SHT31;35382;51.484;11.476;2023-04-03T01:22:26;-0.04;85.54
49489;SHT31;35382;51.484;11.476;2023-04-03T01:26:00;-0.11;85.05
49489;SHT31;35382;51.484;11.476;2023-04-03T01:27:41;-0.10;85.10
49489;SHT31;35382;51.484;11.476;2023-04-03T01:29:22;-0.14;85.26
49489;SHT31;35382;51.484;11.476;2023-04-03T01:31:15;-0.29;85.58
49489;SHT31;35382;51.484;11.476;2023-04-03T01:33:01;-0.22;85.58
49489;SHT31;35382;51.484;11.476;2023-04-03T01:34:42;-0.28;85.71
49489;SHT31;35382;51.484;11.476;2023-04-03T01:36:29;-0.39;85.80
49489;SHT31;35382;51.484;11.476;2023-04-03T01:38:10;-0.32;85.26
49489;SHT31;35382;51.484;11.476;2023-04-03T01:39:51;-0.44;85.81
49489;SHT31;35382;51.484;11.476;2023-04-03T01:41:33;-0.48;85.82
49489;SHT31;35382;51.484;11.476;2023-04-03T01:43:22;-0.44;85.67
49489;SHT31;35382;51.484;11.476;2023-04-03T01:45:03;-0.42;86.45
49489;SHT31;35382;51.484;11.476;2023-04-03T01:46:45;-0.57;86.20
49489;SHT31;35382;51.484;11.476;2023-04-03T01:48:26;-0.59;86.20
49489;SHT31;35382;51.484;11.476;2023-04-03T01:50:08;-0.66;86.76
49489;SHT31;35382;51.484;11.476;2023-04-03T01:51:49;-0.66;86.55
49489;SHT31;35382;51.484;11.476;2023-04-03T01:53:31;-0.66;86.70
49489;SHT31;35382;51.484;11.476;2023-04-03T01:55:12;-0.66;86.75
49489;SHT31;35382;51.484;11.476;2023-04-03T01:56:53;-0.73;87.08
49489;SHT31;35382;51.484;11.476;2023-04-03T01:58:35;-0.73;86.80
49489;SHT31;35382;51.484;11.476;2023-04-03T02:00:16;-0.81;86.79
49489;SHT31;35382;51.484;11.476;2023-04-03T02:01:57;-0.79;87.19
49489;SHT31;35382;51.484;11.476;2023-04-03T02:03:39;-0.81;86.95
49489;SHT31;35382;51.484;11.476;2023-04-03T02:05:20;-0.82;87.21
49489;SHT31;35382;51.484;11.476;2023-04-03T02:07:01;-0.89;87.19
49489;SHT31;35382;51.484;11.476;2023-04-03T02:08:42;-0.82;87.44
49489;SHT31;35382;51.484;11.476;2023-04-03T02:10:22;-0.79;86.80
49489;SHT31;35382;51.484;11.476;2023-04-03T02:12:04;-0.82;87.33
49489;SHT31;35382;51.484;11.476;2023-04-03T02:13:46;-0.81;86.93
49489;SHT31;35382;51.484;11.476;2023-04-03T02:15:27;-0.79;87.23
49489;SHT31;35382;51.484;11.476;2023-04-03T02:17:10;-0.82;87.25
49489;SHT31;35382;51.484;11.476;2023-04-03T02:18:51;-0.92;87.34
49489;SHT31;35382;51.484;11.476;2023-04-03T02:20:32;-0.89;87.29
49489;SHT31;35382;51.484;11.476;2023-04-03T02:22:12;-0.93;87.36
49489;SHT31;35382;51.484;11.476;2023-04-03T02:23:53;-0.96;87.53
49489;SHT31;35382;51.484;11.476;2023-04-03T02:25:34;-0.99;87.69
49489;SHT31;35382;51.484;11.476;2023-04-03T02:27:15;-0.91;87.39
49489;SHT31;35382;51.484;11.476;2023-04-03T02:28:56;-0.93;87.51
49489;SHT31;35382;51.484;11.476;2023-04-03T02:30:37;-0.95;87.41
49489;SHT31;35382;51.484;11.476;2023-04-03T02:32:19;-1.02;87.78
49489;SHT31;35382;51.484;11.476;2023-04-03T02:34:01;-1.02;87.75
49489;SHT31;35382;51.484;11.476;2023-04-03T02:35:42;-1.05;87.95
49489;SHT31;35382;51.484;11.476;2023-04-03T02:37:23;-0.92;87.59
49489;SHT31;35382;51.484;11.476;2023-04-03T02:39:06;-1.03;87.69
49489;SHT31;35382;51.484;11.476;2023-04-03T02:40:49;-1.12;88.08
49489;SHT31;35382;51.484;11.476;2023-04-03T02:42:30;-1.07;88.02
49489;SHT31;35382;51.484;11.476;2023-04-03T02:44:11;-1.15;88.17
49489;SHT31;35382;51.484;11.476;2023-04-03T02:45:53;-1.07;87.87
49489;SHT31;35382;51.484;11.476;2023-04-03T02:47:34;-1.10;87.99
49489;SHT31;35382;51.484;11.476;2023-04-03T02:49:14;-1.23;88.47
49489;SHT31;35382;51.484;11.476;2023-04-03T02:50:56;-1.21;88.44
49489;SHT31;35382;51.484;11.476;2023-04-03T02:52:37;-1.05;87.99
49489;SHT31;35382;51.484;11.476;2023-04-03T02:54:18;-1.16;88.09
49489;SHT31;35382;51.484;11.476;2023-04-03T02:56:03;-1.23;88.18
49489;SHT31;35382;51.484;11.476;2023-04-03T02:57:44;-1.25;88.38
49489;SHT31;35382;51.484;11.476;2023-04-03T02:59:26;-1.25;88.28
49489;SHT31;35382;51.484;11.476;2023-04-03T03:01:07;-1.25;88.38
49489;SHT31;35382;51.484;11.476;2023-04-03T03:02:49;-1.26;88.52
49489;SHT31;35382;51.484;11.476;2023-04-03T03:04:30;-1.27;88.70
49489;SHT31;35382;51.484;11.476;2023-04-03T03:06:13;-1.23;88.72
49489;SHT31;35382;51.484;11.476;2023-04-03T03:07:55;-1.30;88.61
49489;SHT31;35382;51.484;11.476;2023-04-03T03:09:36;-1.29;88.50
49489;SHT31;35382;51.484;11.476;2023-04-03T03:11:17;-1.40;88.79
49489;SHT31;35382;51.484;11.476;2023-04-03T03:12:58;-1.30;88.57
49489;SHT31;35382;51.484;11.476;2023-04-03T03:14:39;-1.26;88.58
49489;SHT31;35382;51.484;11.476;2023-04-03T03:16:21;-1.29;88.48
49489;SHT31;35382;51.484;11.476;2023-04-03T03:18:02;-1.36;88.61
49489;SHT31;35382;51.484;11.476;2023-04-03T03:19:43;-1.29;88.58
49489;SHT31;35382;51.484;11.476;2023-04-03T03:21:26;-1.38;88.60
49489;SHT31;35382;51.484;11.476;2023-04-03T03:23:07;-1.44;88.36
49489;SHT31;35382;51.484;11.476;2023-04-03T03:24:48;-1.39;88.85
49489;SHT31;35382;51.484;11.476;2023-04-03T03:26:29;-1.56;89.41
49489;SHT31;35382;51.484;11.476;2023-04-03T03:28:10;-1.47;89.24
49489;SHT31;35382;51.484;11.476;2023-04-03T03:29:52;-1.46;88.93
49489;SHT31;35382;51.484;11.476;2023-04-03T03:31:33;-1.47;89.16
49489;SHT31;35382;51.484;11.476;2023-04-03T03:33:14;-1.44;88.80
49489;SHT31;35382;51.484;11.476;2023-04-03T03:34:55;-1.46;89.29
49489;SHT31;35382;51.484;11.476;2023-04-03T03:36:36;-1.36;89.04
49489;SHT31;35382;51.484;11.476;2023-04-03T03:38:17;-1.46;89.33
49489;SHT31;35382;51.484;11.476;2023-04-03T03:39:58;-1.47;89.16
49489;SHT31;35382;51.484;11.476;2023-04-03T03:41:39;-1.49;88.99
49489;SHT31;35382;51.484;11.476;2023-04-03T03:43:21;-1.51;89.45
49489;SHT31;35382;51.484;11.476;2023-04-03T03:45:03;-1.62;89.30
49489;SHT31;35382;51.484;11.476;2023-04-03T03:46:45;-1.57;89.60
49489;SHT31;35382;51.484;11.476;2023-04-03T03:48:28;-1.54;89.41
49489;SHT31;35382;51.484;11.476;2023-04-03T03:50:09;-1.47;89.02
49489;SHT31;35382;51.484;11.476;2023-04-03T03:51:50;-1.53;89.04
49489;SHT31;35382;51.484;11.476;2023-04-03T03:53:32;-1.56;89.09
49489;SHT31;35382;51.484;11.476;2023-04-03T03:55:18;-1.57;89.15
49489;SHT31;35382;51.484;11.476;2023-04-03T03:57:05;-1.62;89.29
49489;SHT31;35382;51.484;11.476;2023-04-03T03:58:46;-1.62;89.36
49489;SHT31;35382;51.484;11.476;2023-04-03T04:00:28;-1.64;89.25
49489;SHT31;35382;51.484;11.476;2023-04-03T04:02:11;-1.68;89.36
49489;SHT31;35382;51.484;11.476;2023-04-03T04:03:52;-1.62;89.49
49489;SHT31;35382;51.484;11.476;2023-04-03T04:05:38;-1.59;88.98
49489;SHT31;35382;51.484;11.476;2023-04-03T04:07:19;-1.66;89.07
49489;SHT31;35382;51.484;11.476;2023-04-03T04:09:00;-1.62;88.97
49489;SHT31;35382;51.484;11.476;2023-04-03T04:10:41;-1.53;89.07
49489;SHT31;35382;51.484;11.476;2023-04-03T04:12:23;-1.60;88.83
49489;SHT31;35382;51.484;11.476;2023-04-03T04:14:04;-1.66;89.01
49489;SHT31;35382;51.484;11.476;2023-04-03T04:15:45;-1.53;88.63
49489;SHT31;35382;51.484;11.476;2023-04-03T04:17:27;-1.57;88.22
49489;SHT31;35382;51.484;11.476;2023-04-03T04:19:08;-1.50;87.88
49489;SHT31;35382;51.484;11.476;2023-04-03T04:20:49;-1.51;88.20
49489;SHT31;35382;51.484;11.476;2023-04-03T04:22:32;-1.68;88.69
49489;SHT31;35382;51.484;11.476;2023-04-03T04:24:13;-1.75;88.98
49489;SHT31;35382;51.484;11.476;2023-04-03T04:25:54;-1.66;88.58
49489;SHT31;35382;51.484;11.476;2023-04-03T04:27:36;-1.66;88.58
49489;SHT31;35382;51.484;11.476;2023-04-03T04:29:18;-1.77;88.63
49489;SHT31;35382;51.484;11.476;2023-04-03T04:31:02;-1.62;89.02
49489;SHT31;35382;51.484;11.476;2023-04-03T04:32:43;-1.68;88.64
49489;SHT31;35382;51.484;11.476;2023-04-03T04:34:24;-1.74;88.58
49489;SHT31;35382;51.484;11.476;2023-04-03T04:36:06;-1.66;88.57
49489;SHT31;35382;51.484;11.476;2023-04-03T04:37:47;-1.67;87.91
49489;SHT31;35382;51.484;11.476;2023-04-03T04:39:28;-1.87;88.49
49489;SHT31;35382;51.484;11.476;2023-04-03T04:41:14;-1.81;89.41
49489;SHT31;35382;51.484;11.476;2023-04-03T04:42:55;-1.75;88.65
49489;SHT31;35382;51.484;11.476;2023-04-03T04:44:36;-1.71;88.99
49489;SHT31;35382;51.484;11.476;2023-04-03T04:46:18;-1.84;88.92
49489;SHT31;35382;51.484;11.476;2023-04-03T04:48:03;-1.71;88.35
49489;SHT31;35382;51.484;11.476;2023-04-03T04:49:44;-1.84;88.64
49489;SHT31;35382;51.484;11.476;2023-04-03T04:51:26;-1.77;88.49
49489;SHT31;35382;51.484;11.476;2023-04-03T04:53:07;-1.77;88.06
49489;SHT31;35382;51.484;11.476;2023-04-03T04:54:49;-1.77;88.11
49489;SHT31;35382;51.484;11.476;2023-04-03T04:56:31;-1.68;87.86
49489;SHT31;35382;51.484;11.476;2023-04-03T04:58:13;-1.62;87.95
49489;SHT31;35382;51.484;11.476;2023-04-03T04:59:54;-1.74;87.35
49489;SHT31;35382;51.484;11.476;2023-04-03T05:01:35;-1.70;87.63
49489;SHT31;35382;51.484;11.476;2023-04-03T05:03:23;-1.67;87.48
49489;SHT31;35382;51.484;11.476;2023-04-03T05:05:04;-1.71;86.97
49489;SHT31;35382;51.484;11.476;2023-04-03T05:06:46;-1.81;86.98
49489;SHT31;35382;51.484;11.476;2023-04-03T05:08:31;-1.85;87.29
49489;SHT31;35382;51.484;11.476;2023-04-03T05:10:14;-1.94;88.24
49489;SHT31;35382;51.484;11.476;2023-04-03T05:11:55;-1.85;87.54
49489;SHT31;35382;51.484;11.476;2023-04-03T05:13:40;-1.77;87.73
49489;SHT31;35382;51.484;11.476;2023-04-03T05:15:21;-1.73;87.41
49489;SHT31;35382;51.484;11.476;2023-04-03T05:17:02;-1.71;86.81
49489;SHT31;35382;51.484;11.476;2023-04-03T05:18:46;-1.66;86.72
49489;SHT31;35382;51.484;11.476;2023-04-03T05:20:33;-1.54;86.71
49489;SHT31;35382;51.484;11.476;2023-04-03T05:22:14;-1.56;86.27
49489;SHT31;35382;51.484;11.476;2023-04-03T05:23:55;-1.49;86.28
49489;SHT31;35382;51.484;11.476;2023-04-03T05:25:38;-1.47;86.40
49489;SHT31;35382;51.484;11.476;2023-04-03T05:27:19;-1.53;86.63
49489;SHT31;35382;51.484;11.476;2023-04-03T05:29:06;-1.50;86.42
49489;SHT31;35382;51.484;11.476;2023-04-03T05:30:53;-1.49;86.64
49489;SHT31;35382;51.484;11.476;2023-04-03T05:32:35;-1.56;86.86
49489;SHT31;35382;51.484;11.476;2023-04-03T05:34:26;-1.51;86.90
49489;SHT31;35382;51.484;11.476;2023-04-03T05:36:10;-1.35;86.80
49489;SHT31;35382;51.484;11.476;2023-04-03T05:37:57;-1.27;86.00
49489;SHT31;35382;51.484;11.476;2023-04-03T05:39:38;-1.21;85.56
49489;SHT31;35382;51.484;11.476;2023-04-03T05:41:22;-1.20;85.47
49489;SHT31;35382;51.484;11.476;2023-04-03T05:43:05;-1.10;85.08
49489;SHT31;35382;51.484;11.476;2023-04-03T05:44:49;-0.99;84.95
49489;SHT31;35382;51.484;11.476;2023-04-03T05:46:31;-0.91;85.15
49489;SHT31;35382;51.484;11.476;2023-04-03T05:48:17;-0.89;84.58
49489;SHT31;35382;51.484;11.476;2023-04-03T05:49:57;-0.85;84.10
49489;SHT31;35382;51.484;11.476;2023-04-03T05:51:39;-0.81;84.05
49489;SHT31;35382;51.484;11.476;2023-04-03T05:53:31;-0.73;83.61
49489;SHT31;35382;51.484;11.476;2023-04-03T05:55:17;-0.73;83.86
49489;SHT31;35382;51.484;11.476;2023-04-03T05:56:58;-0.75;84.27
49489;SHT31;35382;51.484;11.476;2023-04-03T05:58:40;-0.55;83.88
49489;SHT31;35382;51.484;11.476;2023-04-03T06:00:21;-0.57;83.85
49489;SHT31;35382;51.484;11.476;2023-04-03T06:02:14;-0.57;83.77
49489;SHT31;35382;51.484;11.476;2023-04-03T06:03:55;-0.51;83.18
49489;SHT31;35382;51.484;11.476;2023-04-03T06:05:36;-0.55;83.60
49489;SHT31;35382;51.484;11.476;2023-04-03T06:07:20;-0.41;82.53
49489;SHT31;35382;51.484;11.476;2023-04-03T06:09:03;-0.42;82.96
49489;SHT31;35382;51.484;11.476;2023-04-03T06:10:45;-0.38;83.22
49489;SHT31;35382;51.484;11.476;2023-04-03T06:12:26;-0.45;83.13
49489;SHT31;35382;51.484;11.476;2023-04-03T06:14:09;-0.42;83.19
49489;SHT31;35382;51.484;11.476;2023-04-03T06:15:50;-0.34;82.51
49489;SHT31;35382;51.484;11.476;2023-04-03T06:17:31;-0.37;82.68
49489;SHT31;35382;51.484;11.476;2023-04-03T06:19:12;-0.34;82.69
49489;SHT31;35382;51.484;11.476;2023-04-03T06:20:57;-0.25;83.27
49489;SHT31;35382;51.484;11.476;2023-04-03T06:22:38;-0.18;82.76
49489;SHT31;35382;51.484;11.476;2023-04-03T06:24:20;-0.08;82.85
49489;SHT31;35382;51.484;11.476;2023-04-03T06:26:03;-0.07;82.16
49489;SHT31;35382;51.484;11.476;2023-04-03T06:27:45;-0.13;82.66
49489;SHT31;35382;51.484;11.476;2023-04-03T06:29:26;0.05;82.36
49489;SHT31;35382;51.484;11.476;2023-04-03T06:31:07;0.02;82.58
49489;SHT31;35382;51.484;11.476;2023-04-03T06:32:47;0.09;82.33
49489;SHT31;35382;51.484;11.476;2023-04-03T06:34:28;0.13;82.14
49489;SHT31;35382;51.484;11.476;2023-04-03T06:36:10;0.17;82.08
49489;SHT31;35382;51.484;11.476;2023-04-03T06:37:52;0.14;82.10
49489;SHT31;35382;51.484;11.476;2023-04-03T06:39:33;0.14;81.73
49489;SHT31;35382;51.484;11.476;2023-04-03T06:41:14;0.23;81.80
49489;SHT31;35382;51.484;11.476;2023-04-03T06:42:55;0.30;81.87
49489;SHT31;35382;51.484;11.476;2023-04-03T06:44:37;0.33;81.72
49489;SHT31;35382;51.484;11.476;2023-04-03T06:46:20;0.40;81.47
49489;SHT31;35382;51.484;11.476;2023-04-03T06:48:01;0.44;81.29
49489;SHT31;35382;51.484;11.476;2023-04-03T06:49:43;0.51;80.99
49489;SHT31;35382;51.484;11.476;2023-04-03T06:51:26;0.68;80.92
49489;SHT31;35382;51.484;11.476;2023-04-03T06:53:07;0.74;80.96
49489;SHT31;35382;51.484;11.476;2023-04-03T06:54:48;0.83;80.24
49489;SHT31;35382;51.484;11.476;2023-04-03T06:56:29;0.87;80.03
49489;SHT31;35382;51.484;11.476;2023-04-03T06:58:12;0.89;79.90
49489;SHT31;35382;51.484;11.476;2023-04-03T06:59:57;1.05;79.75
49489;SHT31;35382;51.484;11.476;2023-04-03T07:01:38;1.29;79.07
49489;SHT31;35382;51.484;11.476;2023-04-03T07:03:19;1.25;79.22
49489;SHT31;35382;51.484;11.476;2023-04-03T07:05:00;1.43;79.03
49489;SHT31;35382;51.484;11.476;2023-04-03T07:06:40;1.59;77.89
49489;SHT31;35382;51.484;11.476;2023-04-03T07:08:23;1.51;78.42
49489;SHT31;35382;51.484;11.476;2023-04-03T07:10:05;1.43;77.64
49489;SHT31;35382;51.484;11.476;2023-04-03T07:11:46;1.60;77.83
49489;SHT31;35382;51.484;11.476;2023-04-03T07:13:27;1.59;77.99
49489;SHT31;35382;51.484;11.476;2023-04-03T07:15:10;1.75;77.51
49489;SHT31;35382;51.484;11.476;2023-04-03T07:16:51;1.66;76.99
49489;SHT31;35382;51.484;11.476;2023-04-03T07:18:33;1.83;77.70
49489;SHT31;35382;51.484;11.476;2023-04-03T07:20:14;1.75;76.51
49489;SHT31;35382;51.484;11.476;2023-04-03T07:21:55;1.89;76.93
49489;SHT31;35382;51.484;11.476;2023-04-03T07:23:36;1.95;76.74
49489;SHT31;35382;51.484;11.476;2023-04-03T07:25:17;2.29;76.03
49489;SHT31;35382;51.484;11.476;2023-04-03T07:26:58;2.40;75.45
49489;SHT31;35382;51.484;11.476;2023-04-03T07:28:39;2.44;74.51
49489;SHT31;35382;51.484;11.476;2023-04-03T07:30:21;2.57;75.58
49489;SHT31;35382;51.484;11.476;2023-04-03T07:32:03;2.61;74.20
49489;SHT31;35382;51.484;11.476;2023-04-03T07:33:44;2.89;74.28
49489;SHT31;35382;51.484;11.476;2023-04-03T07:35:25;3.26;73.46
49489;SHT31;35382;51.484;11.476;2023-04-03T07:37:07;3.49;73.69
49489;SHT31;35382;51.484;11.476;2023-04-03T07:38:49;3.12;73.19
49489;SHT31;35382;51.484;11.476;2023-04-03T07:40:30;3.01;72.78
49489;SHT31;35382;51.484;11.476;2023-04-03T07:42:11;3.26;72.69
49489;SHT31;35382;51.484;11.476;2023-04-03T07:43:53;3.72;71.09
49489;SHT31;35382;51.484;11.476;2023-04-03T07:45:34;3.58;70.45
49489;SHT31;35382;51.484;11.476;2023-04-03T07:47:16;3.80;70.83
49489;SHT31;35382;51.484;11.476;2023-04-03T07:48:58;3.38;71.28
49489;SHT31;35382;51.484;11.476;2023-04-03T07:50:40;3.56;70.94
49489;SHT31;35382;51.484;11.476;2023-04-03T07:52:21;3.62;71.61
49489;SHT31;35382;51.484;11.476;2023-04-03T07:54:02;3.33;71.45
49489;SHT31;35382;51.484;11.476;2023-04-03T07:55:46;3.67;72.08
49489;SHT31;35382;51.484;11.476;2023-04-03T07:57:27;3.76;70.98
49489;SHT31;35382;51.484;11.476;2023-04-03T07:59:09;3.97;69.88
49489;SHT31;35382;51.484;11.476;2023-04-03T08:00:50;3.62;70.97
49489;SHT31;35382;51.484;11.476;2023-04-03T08:02:31;3.25;71.99
49489;SHT31;35382;51.484;11.476;2023-04-03T08:04:12;3.18;72.37
49489;SHT31;35382;51.484;11.476;2023-04-03T08:05:53;3.05;72.43
49489;SHT31;35382;51.484;11.476;2023-04-03T08:07:36;3.11;72.73
49489;SHT31;35382;51.484;11.476;2023-04-03T08:09:18;3.65;72.55
49489;SHT31;35382;51.484;11.476;2023-04-03T08:11:00;3.59;72.07
49489;SHT31;35382;51.484;11.476;2023-04-03T08:12:46;3.80;70.45
49489;SHT31;35382;51.484;11.476;2023-04-03T08:14:27;3.97;70.09
49489;SHT31;35382;51.484;11.476;2023-04-03T08:16:12;4.06;71.16
49489;SHT31;35382;51.484;11.476;2023-04-03T08:17:54;4.11;70.98
49489;SHT31;35382;51.484;11.476;2023-04-03T08:19:35;4.16;68.93
49489;SHT31;35382;51.484;11.476;2023-04-03T08:21:16;3.26;70.07
49489;SHT31;35382;51.484;11.476;2023-04-03T08:22:57;3.01;70.57
49489;SHT31;35382;51.484;11.476;2023-04-03T08:24:38;3.12;70.32
49489;SHT31;35382;51.484;11.476;2023-04-03T08:26:20;2.84;71.34
49489;SHT31;35382;51.484;11.476;2023-04-03T08:28:02;3.42;70.40
49489;SHT31;35382;51.484;11.476;2023-04-03T08:29:43;4.18;68.80
49489;SHT31;35382;51.484;11.476;2023-04-03T08:31:24;3.55;68.02
49489;SHT31;35382;51.484;11.476;2023-04-03T08:33:05;3.76;67.48
49489;SHT31;35382;51.484;11.476;2023-04-03T08:34:46;3.62;69.78
49489;SHT31;35382;51.484;11.476;2023-04-03T08:36:29;3.79;71.00
49489;SHT31;35382;51.484;11.476;2023-04-03T08:38:10;3.85;68.62
49489;SHT31;35382;51.484;11.476;2023-04-03T08:39:51;3.76;68.90
49489;SHT31;35382;51.484;11.476;2023-04-03T08:41:39;3.77;68.85
49489;SHT31;35382;51.484;11.476;2023-04-03T08:43:34;3.66;69.36
49489;SHT31;35382;51.484;11.476;2023-04-03T08:45:27;3.31;69.69
49489;SHT31;35382;51.484;11.476;2023-04-03T08:49:02;3.60;69.83
49489;SHT31;35382;51.484;11.476;2023-04-03T08:50:46;3.96;66.27
49489;SHT31;35382;51.484;11.476;2023-04-03T08:52:50;4.10;67.01
49489;SHT31;35382;51.484;11.476;2023-04-03T08:55:15;4.14;66.16
49489;SHT31;35382;51.484;11.476;2023-04-03T08:56:36;4.01;66.86
49489;SHT31;35382;51.484;11.476;2023-04-03T08:58:21;3.70;65.99
49489;SHT31;35382;51.484;11.476;2023-04-03T09:00:07;3.22;67.13
49489;SHT31;35382;51.484;11.476;2023-04-03T09:01:57;3.16;67.71
49489;SHT31;35382;51.484;11.476;2023-04-03T09:03:39;3.69;67.66
49489;SHT31;35382;51.484;11.476;2023-04-03T09:05:35;3.45;66.88
49489;SHT31;35382;51.484;11.476;2023-04-03T09:07:30;3.11;67.78
49489;SHT31;35382;51.484;11.476;2023-04-03T09:09:20;2.92;67.83
49489;SHT31;35382;51.484;11.476;2023-04-03T09:11:27;4.61;67.37
49489;SHT31;35382;51.484;11.476;2023-04-03T09:14:17;5.86;64.84
49489;SHT31;35382;51.484;11.476;2023-04-03T09:15:37;5.67;63.58
49489;SHT31;35382;51.484;11.476;2023-04-03T09:17:41;4.31;65.25
49489;SHT31;35382;51.484;11.476;2023-04-03T09:19:46;3.70;64.90
49489;SHT31;35382;51.484;11.476;2023-04-03T09:21:35;3.36;66.67
49489;SHT31;35382;51.484;11.476;2023-04-03T09:23:25;3.62;65.90
49489;SHT31;35382;51.484;11.476;2023-04-03T09:25:27;3.62;66.25
49489;SHT31;35382;51.484;11.476;2023-04-03T09:27:10;4.21;66.00
49489;SHT31;35382;51.484;11.476;2023-04-03T09:28:54;4.64;66.32
49489;SHT31;35382;51.484;11.476;2023-04-03T09:30:36;4.36;65.01
49489;SHT31;35382;51.484;11.476;2023-04-03T09:32:29;4.24;65.93
49489;SHT31;35382;51.484;11.476;2023-04-03T09:34:28;3.80;64.74
49489;SHT31;35382;51.484;11.476;2023-04-03T09:36:11;3.85;65.29
49489;SHT31;35382;51.484;11.476;2023-04-03T09:37:55;3.46;66.65
49489;SHT31;35382;51.484;11.476;2023-04-03T09:39:51;3.33;66.79
49489;SHT31;35382;51.484;11.476;2023-04-03T09:41:33;3.53;68.15
49489;SHT31;35382;51.484;11.476;2023-04-03T09:43:27;3.62;65.28
49489;SHT31;35382;51.484;11.476;2023-04-03T09:45:22;3.79;65.71
49489;SHT31;35382;51.484;11.476;2023-04-03T09:47:24;4.06;64.64
49489;SHT31;35382;51.484;11.476;2023-04-03T09:49:10;4.57;62.62
49489;SHT31;35382;51.484;11.476;2023-04-03T09:50:57;4.00;62.83
49489;SHT31;35382;51.484;11.476;2023-04-03T09:52:42;4.01;63.32
49489;SHT31;35382;51.484;11.476;2023-04-03T09:54:30;5.05;61.14
49489;SHT31;35382;51.484;11.476;2023-04-03T09:58:03;6.52;57.43
49489;SHT31;35382;51.484;11.476;2023-04-03T09:59:57;6.14;56.19
49489;SHT31;35382;51.484;11.476;2023-04-03T10:02:02;5.26;59.11
49489;SHT31;35382;51.484;11.476;2023-04-03T10:03:43;4.92;61.85
49489;SHT31;35382;51.484;11.476;2023-04-03T10:05:39;5.36;60.96
49489;SHT31;35382;51.484;11.476;2023-04-03T10:07:37;5.66;59.35
49489;SHT31;35382;51.484;11.476;2023-04-03T10:09:25;6.16;57.68
49489;SHT31;35382;51.484;11.476;2023-04-03T10:11:12;6.11;54.66
49489;SHT31;35382;51.484;11.476;2023-04-03T10:13:11;5.90;55.22
49489;SHT31;35382;51.484;11.476;2023-04-03T10:16:41;6.00;56.20
49489;SHT31;35382;51.484;11.476;2023-04-03T10:20:42;6.14;54.66
49489;SHT31;35382;51.484;11.476;2023-04-03T10:22:37;6.35;56.28
49489;SHT31;35382;51.484;11.476;2023-04-03T10:30:32;6.28;52.33
49489;SHT31;35382;51.484;11.476;2023-04-03T10:34:40;7.46;53.82
49489;SHT31;35382;51.484;11.476;2023-04-03T10:38:33;5.52;57.96
49489;SHT31;35382;51.484;11.476;2023-04-03T10:42:50;5.46;59.17
49489;SHT31;35382;51.484;11.476;2023-04-03T10:44:56;5.18;60.11
49489;SHT31;35382;51.484;11.476;2023-04-03T10:46:45;5.08;61.38
49489;SHT31;35382;51.484;11.476;2023-04-03T10:50:47;5.94;59.59
49489;SHT31;35382;51.484;11.476;2023-04-03T10:54:24;7.30;54.91
49489;SHT31;35382;51.484;11.476;2023-04-03T10:56:18;7.67;52.74
49489;SHT31;35382;51.484;11.476;2023-04-03T10:58:04;7.02;52.61
49489;SHT31;35382;51.484;11.476;2023-04-03T10:59:49;6.65;55.98
49489;SHT31;35382;51.484;11.476;2023-04-03T11:01:35;6.38;56.47
49489;SHT31;35382;51.484;11.476;2023-04-03T11:03:30;6.28;55.94
49489;SHT31;35382;51.484;11.476;2023-04-03T11:05:39;5.73;58.09
49489;SHT31;35382;51.484;11.476;2023-04-03T11:07:33;5.79;58.92
49489;SHT31;35382;51.484;11.476;2023-04-03T11:09:26;5.65;58.07
49489;SHT31;35382;51.484;11.476;2023-04-03T11:11:24;5.80;56.62
49489;SHT31;35382;51.484;11.476;2023-04-03T11:13:20;6.03;58.24
49489;SHT31;35382;51.484;11.476;2023-04-03T11:15:04;5.97;58.89
49489;SHT31;35382;51.484;11.476;2023-04-03T11:16:50;5.74;58.76
49489;SHT31;35382;51.484;11.476;2023-04-03T11:18:48;5.69;58.26
49489;SHT31;35382;51.484;11.476;2023-04-03T11:20:31;5.45;58.83
49489;SHT31;35382;51.484;11.476;2023-04-03T11:22:24;5.13;58.58
49489;SHT31;35382;51.484;11.476;2023-04-03T11:24:17;5.08;59.72
49489;SHT31;35382;51.484;11.476;2023-04-03T11:26:16;5.07;59.74